»·PEaware :: N6065L KSNA-KCRQ

N6065L :: KSNA-KCRQ

FLIGHT INFORMATION

Flight Status: Arrived
Operator: Privately registered:
United States
More flights under this callsign
Pilot: Kyle A. (14988)
Aircraft: CESSNA 172 SKYHAWK
(C172)
More flights by this aircraft type
Origin: KSNA John Wayne-Orange Co
United States
Destination: KCRQ McClellan-Palomar
United States
More flights between these airports :: More routes between these airports
Route: +V23 OCN
File this flight plan on PilotEdge
Remarks: I-2
Altitude:
(Current/Filed)
5,000ft
Speed:
(Current/Filed)
115kts
Departed: 28-Nov-17 11:21 AM
Arrived: 28-Nov-17 11:57 AM
Distance/Time
Traveled:
0nm/0:36
Distance/Time
To Go:
Arrived

Flight Plot

Page will automatically refresh every two minutes.


Map Options




Map Legend


Flown Route
Filed Route
Departure Airport
Arrival Airport
Navaid (VOR, NDB)
Fix

Horizontal Profiles

Position Reports

Time Latitude Longitude Heading Altitude Ground
Speed
28-Nov-17 11:15 33.675973 -117.871219 216 49ft 0kts
28-Nov-17 11:16 33.675973 -117.871219 216 49ft 0kts
28-Nov-17 11:17 33.675973 -117.871219 216 49ft 0kts
28-Nov-17 11:18 33.675973 -117.871219 216 49ft 0kts
28-Nov-17 11:19 33.675973 -117.871219 216 49ft 0kts
28-Nov-17 11:20 33.675973 -117.871219 216 49ft 0kts
28-Nov-17 11:21 33.675973 -117.871219 216 49ft 0kts
28-Nov-17 11:22 33.675591 -117.870390 25 48ft 6kts
28-Nov-17 11:23 33.678251 -117.868693 28 48ft 14kts
28-Nov-17 11:24 33.681212 -117.866426 118 49ft 0kts
28-Nov-17 11:25 33.681030 -117.866043 118 48ft 11kts
28-Nov-17 11:26 33.667109 -117.873036 187 728ft 82kts
28-Nov-17 11:27 33.643814 -117.875496 187 1942ft 84kts
28-Nov-17 11:28 33.621953 -117.877972 187 3175ft 77kts
28-Nov-17 11:29 33.600256 -117.880326 187 4275ft 79kts
28-Nov-17 11:30 33.576422 -117.883018 188 4994ft 108kts
28-Nov-17 11:31 33.548983 -117.872720 110 4987ft 120kts
28-Nov-17 11:32 33.536982 -117.834869 111 4995ft 122kts
28-Nov-17 11:33 33.524855 -117.796539 111 4995ft 123kts
28-Nov-17 11:34 33.512704 -117.758133 111 4995ft 123kts
28-Nov-17 11:35 33.499547 -117.720306 137 4992ft 121kts
28-Nov-17 11:36 33.475413 -117.691803 136 4995ft 122kts
28-Nov-17 11:37 33.451214 -117.663442 136 4995ft 120kts
28-Nov-17 11:38 33.427441 -117.635613 136 5004ft 119kts
28-Nov-17 11:39 33.403674 -117.607815 136 5004ft 119kts
28-Nov-17 11:40 33.380320 -117.580498 137 5033ft 119kts
28-Nov-17 11:41 33.356078 -117.552195 137 5033ft 127kts
28-Nov-17 11:42 33.330342 -117.522181 137 5031ft 128kts
28-Nov-17 11:43 33.309389 -117.497754 137 5031ft 123kts
28-Nov-17 11:44 33.285078 -117.469424 137 5032ft 121kts
28-Nov-17 11:45 33.261174 -117.433740 97 5032ft 121kts
28-Nov-17 11:46 33.258008 -117.400137 96 5032ft 122kts
28-Nov-17 11:47 33.253238 -117.353492 96 4985ft 119kts
28-Nov-17 11:48 33.249900 -117.321119 96 4986ft 120kts
28-Nov-17 11:49 33.245656 -117.280063 96 4986ft 126kts
28-Nov-17 11:50 33.241335 -117.238165 96 4986ft 127kts
28-Nov-17 11:51 33.237062 -117.196586 96 4988ft 125kts
28-Nov-17 11:52 33.232839 -117.155454 96 5013ft 124kts
28-Nov-17 11:53 33.228625 -117.114334 96 5013ft 125kts
28-Nov-17 11:54 33.222106 -117.074249 136 5007ft 122kts
28-Nov-17 11:55 33.190023 -117.059933 163 4507ft 122kts
28-Nov-17 11:56 33.162662 -117.081799 221 3791ft 127kts
28-Nov-17 11:57 33.153701 -117.122170 258 3029ft 126kts
28-Nov-17 11:58 33.147171 -117.162951 257 2290ft 123kts
28-Nov-17 11:59 33.140762 -117.202694 258 1578ft 121kts
28-Nov-17 12:00 33.134735 -117.240077 259 912ft 97kts
28-Nov-17 12:01 33.130834 -117.264093 258 494ft 63kts
28-Nov-17 12:02 33.128545 -117.278085 256 297ft 20kts
28-Nov-17 12:03 33.127934 -117.276972 79 297ft 14kts
28-Nov-17 12:04 33.127593 -117.275467 81 297ft 0kts
28-Nov-17 12:07 33.675365 -117.871245 43 48ft 0kts
28-Nov-17 12:08 33.675365 -117.871245 43 48ft 0kts
28-Nov-17 12:09 33.675365 -117.871245 43 48ft 0kts
28-Nov-17 12:10 33.675365 -117.871245 43 48ft 0kts

Navigation Log

Ident Type
1. KSNA Airport
2. OCN Navaid
3. KCRQ Airport